sensor_id;sensor_type;location;lat;lon;timestamp;P1;durP1;ratioP1;P2;durP2;ratioP2
9848;SDS011;4963;51.444;6.528;2023-05-10T00:02:00;11.17;;;10.00;;
9848;SDS011;4963;51.444;6.528;2023-05-10T00:04:27;11.77;;;10.57;;
9848;SDS011;4963;51.444;6.528;2023-05-10T00:06:56;11.43;;;10.20;;
9848;SDS011;4963;51.444;6.528;2023-05-10T00:09:23;13.87;;;10.77;;
9848;SDS011;4963;51.444;6.528;2023-05-10T00:11:49;11.47;;;10.27;;
9848;SDS011;4963;51.444;6.528;2023-05-10T00:14:16;11.97;;;10.47;;
9848;SDS011;4963;51.444;6.528;2023-05-10T00:16:43;12.23;;;10.93;;
9848;SDS011;4963;51.444;6.528;2023-05-10T00:19:10;12.10;;;10.80;;
9848;SDS011;4963;51.444;6.528;2023-05-10T00:21:37;13.37;;;10.27;;
9848;SDS011;4963;51.444;6.528;2023-05-10T00:24:05;12.57;;;10.97;;
9848;SDS011;4963;51.444;6.528;2023-05-10T00:26:32;13.70;;;12.20;;
9848;SDS011;4963;51.444;6.528;2023-05-10T00:28:59;12.53;;;11.33;;
9848;SDS011;4963;51.444;6.528;2023-05-10T00:31:26;12.10;;;10.73;;
9848;SDS011;4963;51.444;6.528;2023-05-10T00:33:53;13.40;;;12.00;;
9848;SDS011;4963;51.444;6.528;2023-05-10T00:36:20;13.33;;;11.93;;
9848;SDS011;4963;51.444;6.528;2023-05-10T00:38:47;13.13;;;11.83;;
9848;SDS011;4963;51.444;6.528;2023-05-10T00:41:15;13.60;;;12.27;;
9848;SDS011;4963;51.444;6.528;2023-05-10T00:43:42;14.33;;;12.70;;
9848;SDS011;4963;51.444;6.528;2023-05-10T00:46:09;13.80;;;12.33;;
9848;SDS011;4963;51.444;6.528;2023-05-10T00:48:36;13.50;;;11.63;;
9848;SDS011;4963;51.444;6.528;2023-05-10T00:51:03;13.43;;;12.13;;
9848;SDS011;4963;51.444;6.528;2023-05-10T00:53:31;13.03;;;11.67;;
9848;SDS011;4963;51.444;6.528;2023-05-10T00:55:58;14.00;;;11.83;;
9848;SDS011;4963;51.444;6.528;2023-05-10T00:58:26;13.37;;;11.80;;
9848;SDS011;4963;51.444;6.528;2023-05-10T01:00:55;12.50;;;11.20;;
9848;SDS011;4963;51.444;6.528;2023-05-10T01:03:24;12.67;;;11.37;;
9848;SDS011;4963;51.444;6.528;2023-05-10T01:05:51;12.80;;;11.40;;
9848;SDS011;4963;51.444;6.528;2023-05-10T01:08:18;12.20;;;11.00;;
9848;SDS011;4963;51.444;6.528;2023-05-10T01:10:45;13.63;;;11.73;;
9848;SDS011;4963;51.444;6.528;2023-05-10T01:13:14;14.27;;;12.77;;
9848;SDS011;4963;51.444;6.528;2023-05-10T01:15:49;13.73;;;12.20;;
9848;SDS011;4963;51.444;6.528;2023-05-10T01:18:16;14.97;;;13.37;;
9848;SDS011;4963;51.444;6.528;2023-05-10T01:20:47;15.10;;;13.53;;
9848;SDS011;4963;51.444;6.528;2023-05-10T01:26:39;15.03;;;12.87;;
9848;SDS011;4963;51.444;6.528;2023-05-10T01:29:25;14.13;;;12.17;;
9848;SDS011;4963;51.444;6.528;2023-05-10T01:32:15;14.97;;;12.50;;
9848;SDS011;4963;51.444;6.528;2023-05-10T01:34:47;13.10;;;11.80;;
9848;SDS011;4963;51.444;6.528;2023-05-10T01:37:20;14.63;;;12.50;;
9848;SDS011;4963;51.444;6.528;2023-05-10T01:39:54;13.10;;;11.50;;
9848;SDS011;4963;51.444;6.528;2023-05-10T01:42:26;14.00;;;11.63;;
9848;SDS011;4963;51.444;6.528;2023-05-10T01:45:02;13.30;;;11.90;;
9848;SDS011;4963;51.444;6.528;2023-05-10T01:47:42;13.33;;;11.93;;
9848;SDS011;4963;51.444;6.528;2023-05-10T01:50:15;13.33;;;12.00;;
9848;SDS011;4963;51.444;6.528;2023-05-10T01:52:46;13.30;;;11.90;;
9848;SDS011;4963;51.444;6.528;2023-05-10T01:55:17;13.20;;;11.57;;
9848;SDS011;4963;51.444;6.528;2023-05-10T01:57:50;13.50;;;11.13;;
9848;SDS011;4963;51.444;6.528;2023-05-10T02:00:22;12.33;;;10.90;;
9848;SDS011;4963;51.444;6.528;2023-05-10T02:02:52;13.97;;;12.57;;
9848;SDS011;4963;51.444;6.528;2023-05-10T02:05:20;13.97;;;11.63;;
9848;SDS011;4963;51.444;6.528;2023-05-10T02:07:48;14.73;;;11.37;;
9848;SDS011;4963;51.444;6.528;2023-05-10T02:10:16;12.80;;;11.47;;
9848;SDS011;4963;51.444;6.528;2023-05-10T02:12:45;13.97;;;11.50;;
9848;SDS011;4963;51.444;6.528;2023-05-10T02:15:15;13.97;;;11.87;;
9848;SDS011;4963;51.444;6.528;2023-05-10T02:17:44;17.50;;;12.87;;
9848;SDS011;4963;51.444;6.528;2023-05-10T02:20:14;12.70;;;11.40;;
9848;SDS011;4963;51.444;6.528;2023-05-10T02:22:43;13.90;;;12.03;;
9848;SDS011;4963;51.444;6.528;2023-05-10T02:25:13;12.47;;;10.97;;
9848;SDS011;4963;51.444;6.528;2023-05-10T02:27:41;12.97;;;11.57;;
9848;SDS011;4963;51.444;6.528;2023-05-10T02:30:10;14.40;;;11.60;;
9848;SDS011;4963;51.444;6.528;2023-05-10T02:32:39;13.00;;;11.60;;
9848;SDS011;4963;51.444;6.528;2023-05-10T02:35:07;12.47;;;11.03;;
9848;SDS011;4963;51.444;6.528;2023-05-10T02:37:37;12.27;;;10.97;;
9848;SDS011;4963;51.444;6.528;2023-05-10T02:40:06;12.03;;;10.10;;
9848;SDS011;4963;51.444;6.528;2023-05-10T02:42:35;11.93;;;10.67;;
9848;SDS011;4963;51.444;6.528;2023-05-10T02:45:05;11.83;;;10.13;;
9848;SDS011;4963;51.444;6.528;2023-05-10T02:47:36;11.77;;;10.57;;
9848;SDS011;4963;51.444;6.528;2023-05-10T02:50:03;12.97;;;10.17;;
9848;SDS011;4963;51.444;6.528;2023-05-10T02:52:35;12.60;;;11.23;;
9848;SDS011;4963;51.444;6.528;2023-05-10T02:55:09;11.40;;;10.20;;
9848;SDS011;4963;51.444;6.528;2023-05-10T02:57:41;12.03;;;10.73;;
9848;SDS011;4963;51.444;6.528;2023-05-10T03:00:10;13.90;;;10.33;;
9848;SDS011;4963;51.444;6.528;2023-05-10T03:02:37;13.83;;;11.00;;
9848;SDS011;4963;51.444;6.528;2023-05-10T03:05:04;11.57;;;10.00;;
9848;SDS011;4963;51.444;6.528;2023-05-10T03:07:34;12.07;;;10.80;;
9848;SDS011;4963;51.444;6.528;2023-05-10T03:10:14;12.20;;;10.67;;
9848;SDS011;4963;51.444;6.528;2023-05-10T03:12:45;13.73;;;11.63;;
9848;SDS011;4963;51.444;6.528;2023-05-10T03:15:22;12.60;;;10.10;;
9848;SDS011;4963;51.444;6.528;2023-05-10T03:17:57;12.63;;;10.27;;
9848;SDS011;4963;51.444;6.528;2023-05-10T03:20:35;12.50;;;11.20;;
9848;SDS011;4963;51.444;6.528;2023-05-10T03:23:07;12.37;;;9.63;;
9848;SDS011;4963;51.444;6.528;2023-05-10T03:25:39;12.50;;;11.17;;
9848;SDS011;4963;51.444;6.528;2023-05-10T03:28:08;12.73;;;10.93;;
9848;SDS011;4963;51.444;6.528;2023-05-10T03:30:36;15.10;;;11.60;;
9848;SDS011;4963;51.444;6.528;2023-05-10T03:33:05;12.80;;;11.27;;
9848;SDS011;4963;51.444;6.528;2023-05-10T03:35:33;12.10;;;10.63;;
9848;SDS011;4963;51.444;6.528;2023-05-10T03:38:00;13.03;;;11.10;;
9848;SDS011;4963;51.444;6.528;2023-05-10T03:40:28;12.77;;;11.00;;
9848;SDS011;4963;51.444;6.528;2023-05-10T03:42:57;17.83;;;14.13;;
9848;SDS011;4963;51.444;6.528;2023-05-10T03:45:24;14.43;;;11.80;;
9848;SDS011;4963;51.444;6.528;2023-05-10T03:47:51;16.13;;;13.07;;
9848;SDS011;4963;51.444;6.528;2023-05-10T03:50:19;14.60;;;12.33;;
9848;SDS011;4963;51.444;6.528;2023-05-10T03:52:46;16.93;;;14.40;;
9848;SDS011;4963;51.444;6.528;2023-05-10T03:55:13;18.17;;;14.97;;
9848;SDS011;4963;51.444;6.528;2023-05-10T03:57:42;14.50;;;12.97;;
9848;SDS011;4963;51.444;6.528;2023-05-10T04:00:10;16.10;;;13.37;;
9848;SDS011;4963;51.444;6.528;2023-05-10T04:02:39;17.47;;;15.03;;
9848;SDS011;4963;51.444;6.528;2023-05-10T04:05:06;18.60;;;14.03;;
9848;SDS011;4963;51.444;6.528;2023-05-10T04:07:34;17.70;;;15.60;;
9848;SDS011;4963;51.444;6.528;2023-05-10T04:10:01;18.40;;;15.00;;
9848;SDS011;4963;51.444;6.528;2023-05-10T04:12:28;20.27;;;16.07;;
9848;SDS011;4963;51.444;6.528;2023-05-10T04:14:57;18.47;;;15.20;;
9848;SDS011;4963;51.444;6.528;2023-05-10T04:17:24;21.63;;;17.13;;
9848;SDS011;4963;51.444;6.528;2023-05-10T04:19:51;21.00;;;16.13;;
9848;SDS011;4963;51.444;6.528;2023-05-10T04:22:22;21.27;;;17.40;;
9848;SDS011;4963;51.444;6.528;2023-05-10T04:24:49;21.40;;;17.33;;
9848;SDS011;4963;51.444;6.528;2023-05-10T04:27:19;21.30;;;18.40;;
9848;SDS011;4963;51.444;6.528;2023-05-10T04:29:47;22.77;;;18.10;;
9848;SDS011;4963;51.444;6.528;2023-05-10T04:32:15;24.13;;;19.20;;
9848;SDS011;4963;51.444;6.528;2023-05-10T04:34:42;24.50;;;19.90;;
9848;SDS011;4963;51.444;6.528;2023-05-10T04:37:12;26.80;;;20.70;;
9848;SDS011;4963;51.444;6.528;2023-05-10T04:39:39;24.70;;;19.03;;
9848;SDS011;4963;51.444;6.528;2023-05-10T04:42:06;24.13;;;20.20;;
9848;SDS011;4963;51.444;6.528;2023-05-10T04:44:33;23.77;;;19.03;;
9848;SDS011;4963;51.444;6.528;2023-05-10T04:47:05;22.50;;;19.50;;
9848;SDS011;4963;51.444;6.528;2023-05-10T04:49:38;25.33;;;20.37;;
9848;SDS011;4963;51.444;6.528;2023-05-10T04:52:05;22.90;;;19.23;;
9848;SDS011;4963;51.444;6.528;2023-05-10T04:54:32;25.30;;;20.13;;
9848;SDS011;4963;51.444;6.528;2023-05-10T04:56:59;24.90;;;20.20;;
9848;SDS011;4963;51.444;6.528;2023-05-10T05:00:29;25.73;;;20.70;;
9848;SDS011;4963;51.444;6.528;2023-05-10T05:02:27;24.13;;;20.27;;
9848;SDS011;4963;51.444;6.528;2023-05-10T05:04:57;26.73;;;21.87;;
9848;SDS011;4963;51.444;6.528;2023-05-10T05:07:24;26.97;;;21.10;;
9848;SDS011;4963;51.444;6.528;2023-05-10T05:09:52;31.07;;;23.10;;
9848;SDS011;4963;51.444;6.528;2023-05-10T05:12:19;28.37;;;22.23;;
9848;SDS011;4963;51.444;6.528;2023-05-10T05:15:02;30.30;;;23.77;;
9848;SDS011;4963;51.444;6.528;2023-05-10T05:17:31;32.00;;;24.60;;
9848;SDS011;4963;51.444;6.528;2023-05-10T05:20:04;29.13;;;22.50;;
9848;SDS011;4963;51.444;6.528;2023-05-10T05:22:32;28.80;;;22.97;;
9848;SDS011;4963;51.444;6.528;2023-05-10T05:24:59;29.00;;;22.87;;
9848;SDS011;4963;51.444;6.528;2023-05-10T05:27:27;31.43;;;23.97;;
9848;SDS011;4963;51.444;6.528;2023-05-10T05:29:54;33.10;;;25.97;;
9848;SDS011;4963;51.444;6.528;2023-05-10T05:32:21;30.87;;;24.30;;
9848;SDS011;4963;51.444;6.528;2023-05-10T05:34:51;32.03;;;23.73;;
9848;SDS011;4963;51.444;6.528;2023-05-10T05:37:32;32.60;;;24.50;;
9848;SDS011;4963;51.444;6.528;2023-05-10T05:40:00;31.67;;;23.63;;
9848;SDS011;4963;51.444;6.528;2023-05-10T05:42:27;31.40;;;25.37;;
9848;SDS011;4963;51.444;6.528;2023-05-10T05:44:54;34.43;;;24.50;;
9848;SDS011;4963;51.444;6.528;2023-05-10T05:47:29;32.20;;;23.80;;
9848;SDS011;4963;51.444;6.528;2023-05-10T05:49:56;30.80;;;23.93;;
9848;SDS011;4963;51.444;6.528;2023-05-10T05:52:23;33.57;;;23.83;;
9848;SDS011;4963;51.444;6.528;2023-05-10T05:54:52;31.53;;;24.70;;
9848;SDS011;4963;51.444;6.528;2023-05-10T05:57:19;34.53;;;24.40;;
9848;SDS011;4963;51.444;6.528;2023-05-10T05:59:46;37.80;;;25.87;;
9848;SDS011;4963;51.444;6.528;2023-05-10T06:02:16;40.73;;;26.57;;
9848;SDS011;4963;51.444;6.528;2023-05-10T06:04:46;36.47;;;26.23;;
9848;SDS011;4963;51.444;6.528;2023-05-10T06:07:20;33.67;;;24.17;;
9848;SDS011;4963;51.444;6.528;2023-05-10T06:09:54;36.43;;;25.93;;
9848;SDS011;4963;51.444;6.528;2023-05-10T06:12:21;36.20;;;24.93;;
9848;SDS011;4963;51.444;6.528;2023-05-10T06:14:48;36.17;;;25.73;;
9848;SDS011;4963;51.444;6.528;2023-05-10T06:17:16;37.77;;;27.47;;
9848;SDS011;4963;51.444;6.528;2023-05-10T06:19:43;34.63;;;25.57;;
9848;SDS011;4963;51.444;6.528;2023-05-10T06:22:14;36.80;;;26.27;;
9848;SDS011;4963;51.444;6.528;2023-05-10T06:24:58;103.33;;;43.73;;
9848;SDS011;4963;51.444;6.528;2023-05-10T06:27:26;53.83;;;30.70;;
9848;SDS011;4963;51.444;6.528;2023-05-10T06:30:10;38.13;;;26.70;;
9848;SDS011;4963;51.444;6.528;2023-05-10T06:39:43;39.47;;;25.60;;
9848;SDS011;4963;51.444;6.528;2023-05-10T06:42:11;38.70;;;25.97;;
9848;SDS011;4963;51.444;6.528;2023-05-10T06:44:38;43.90;;;28.23;;
9848;SDS011;4963;51.444;6.528;2023-05-10T06:47:05;37.13;;;27.20;;
9848;SDS011;4963;51.444;6.528;2023-05-10T06:49:31;40.73;;;27.50;;
9848;SDS011;4963;51.444;6.528;2023-05-10T06:51:58;38.30;;;26.10;;
9848;SDS011;4963;51.444;6.528;2023-05-10T06:54:25;41.17;;;26.87;;
9848;SDS011;4963;51.444;6.528;2023-05-10T06:56:52;37.60;;;26.37;;
9848;SDS011;4963;51.444;6.528;2023-05-10T06:59:20;38.53;;;26.50;;
9848;SDS011;4963;51.444;6.528;2023-05-10T07:01:47;40.13;;;26.60;;
9848;SDS011;4963;51.444;6.528;2023-05-10T07:04:14;40.67;;;26.27;;
9848;SDS011;4963;51.444;6.528;2023-05-10T07:06:41;35.53;;;26.07;;
9848;SDS011;4963;51.444;6.528;2023-05-10T07:09:07;40.47;;;25.40;;
9848;SDS011;4963;51.444;6.528;2023-05-10T07:11:34;42.60;;;26.90;;
9848;SDS011;4963;51.444;6.528;2023-05-10T07:14:02;38.63;;;27.13;;
9848;SDS011;4963;51.444;6.528;2023-05-10T07:16:30;44.97;;;28.13;;
9848;SDS011;4963;51.444;6.528;2023-05-10T07:18:57;46.63;;;28.00;;
9848;SDS011;4963;51.444;6.528;2023-05-10T07:21:24;41.60;;;28.00;;
9848;SDS011;4963;51.444;6.528;2023-05-10T07:23:53;44.33;;;27.57;;
9848;SDS011;4963;51.444;6.528;2023-05-10T07:26:20;46.73;;;28.50;;
9848;SDS011;4963;51.444;6.528;2023-05-10T07:28:47;44.83;;;28.60;;
9848;SDS011;4963;51.444;6.528;2023-05-10T07:31:13;48.20;;;29.27;;
9848;SDS011;4963;51.444;6.528;2023-05-10T07:33:42;46.47;;;30.10;;
9848;SDS011;4963;51.444;6.528;2023-05-10T07:36:08;45.33;;;28.90;;
9848;SDS011;4963;51.444;6.528;2023-05-10T07:38:35;47.77;;;28.60;;
9848;SDS011;4963;51.444;6.528;2023-05-10T07:41:02;48.67;;;29.60;;
9848;SDS011;4963;51.444;6.528;2023-05-10T07:43:29;45.87;;;29.30;;
9848;SDS011;4963;51.444;6.528;2023-05-10T07:45:55;40.43;;;27.93;;
9848;SDS011;4963;51.444;6.528;2023-05-10T07:48:24;44.30;;;28.50;;
9848;SDS011;4963;51.444;6.528;2023-05-10T07:50:53;40.90;;;27.47;;
9848;SDS011;4963;51.444;6.528;2023-05-10T07:53:20;42.13;;;26.87;;
9848;SDS011;4963;51.444;6.528;2023-05-10T07:55:49;41.33;;;26.77;;
9848;SDS011;4963;51.444;6.528;2023-05-10T07:58:16;38.93;;;26.90;;
9848;SDS011;4963;51.444;6.528;2023-05-10T08:00:43;46.53;;;29.80;;
9848;SDS011;4963;51.444;6.528;2023-05-10T08:03:10;41.03;;;28.43;;
9848;SDS011;4963;51.444;6.528;2023-05-10T08:05:37;43.60;;;29.03;;
9848;SDS011;4963;51.444;6.528;2023-05-10T08:08:05;43.73;;;30.27;;
9848;SDS011;4963;51.444;6.528;2023-05-10T08:10:31;41.60;;;28.53;;
9848;SDS011;4963;51.444;6.528;2023-05-10T08:12:58;36.33;;;26.60;;
9848;SDS011;4963;51.444;6.528;2023-05-10T08:15:25;36.63;;;27.15;;
9848;SDS011;4963;51.444;6.528;2023-05-10T08:17:52;36.50;;;25.57;;
9848;SDS011;4963;51.444;6.528;2023-05-10T08:20:19;40.00;;;27.13;;
9848;SDS011;4963;51.444;6.528;2023-05-10T08:22:46;36.75;;;26.02;;
9848;SDS011;4963;51.444;6.528;2023-05-10T08:25:14;34.65;;;23.80;;
9848;SDS011;4963;51.444;6.528;2023-05-10T08:27:41;42.17;;;24.80;;
9848;SDS011;4963;51.444;6.528;2023-05-10T08:30:08;35.75;;;23.98;;
9848;SDS011;4963;51.444;6.528;2023-05-10T08:32:36;28.47;;;21.70;;
9848;SDS011;4963;51.444;6.528;2023-05-10T08:35:03;30.52;;;21.67;;
9848;SDS011;4963;51.444;6.528;2023-05-10T08:37:30;27.60;;;21.48;;
9848;SDS011;4963;51.444;6.528;2023-05-10T08:39:58;27.35;;;20.08;;
9848;SDS011;4963;51.444;6.528;2023-05-10T08:42:26;25.25;;;18.67;;
9848;SDS011;4963;51.444;6.528;2023-05-10T08:44:56;26.15;;;18.10;;
9848;SDS011;4963;51.444;6.528;2023-05-10T08:47:25;23.50;;;16.85;;
9848;SDS011;4963;51.444;6.528;2023-05-10T08:49:52;18.73;;;15.87;;
9848;SDS011;4963;51.444;6.528;2023-05-10T08:52:20;23.10;;;16.50;;
9848;SDS011;4963;51.444;6.528;2023-05-10T08:54:50;21.77;;;16.13;;
9848;SDS011;4963;51.444;6.528;2023-05-10T08:57:18;20.40;;;15.37;;
9848;SDS011;4963;51.444;6.528;2023-05-10T08:59:47;25.05;;;16.30;;
9848;SDS011;4963;51.444;6.528;2023-05-10T09:02:14;22.38;;;16.77;;
9848;SDS011;4963;51.444;6.528;2023-05-10T09:04:41;22.37;;;17.50;;
9848;SDS011;4963;51.444;6.528;2023-05-10T09:07:08;26.23;;;16.80;;
9848;SDS011;4963;51.444;6.528;2023-05-10T09:09:36;21.80;;;16.17;;
9848;SDS011;4963;51.444;6.528;2023-05-10T09:12:03;30.60;;;19.53;;
9848;SDS011;4963;51.444;6.528;2023-05-10T09:14:31;27.43;;;17.60;;
9848;SDS011;4963;51.444;6.528;2023-05-10T09:17:01;23.10;;;17.65;;
9848;SDS011;4963;51.444;6.528;2023-05-10T09:19:28;26.73;;;18.30;;
9848;SDS011;4963;51.444;6.528;2023-05-10T09:21:55;26.37;;;16.13;;
9848;SDS011;4963;51.444;6.528;2023-05-10T09:24:25;20.67;;;15.90;;
9848;SDS011;4963;51.444;6.528;2023-05-10T09:26:52;21.47;;;16.67;;
9848;SDS011;4963;51.444;6.528;2023-05-10T09:29:19;25.37;;;16.43;;
9848;SDS011;4963;51.444;6.528;2023-05-10T09:31:46;20.43;;;16.17;;
9848;SDS011;4963;51.444;6.528;2023-05-10T09:34:18;20.07;;;15.07;;
9848;SDS011;4963;51.444;6.528;2023-05-10T09:36:52;22.13;;;16.70;;
9848;SDS011;4963;51.444;6.528;2023-05-10T09:39:21;21.83;;;15.63;;
9848;SDS011;4963;51.444;6.528;2023-05-10T09:41:57;22.20;;;16.50;;
9848;SDS011;4963;51.444;6.528;2023-05-10T09:44:25;22.63;;;17.30;;
9848;SDS011;4963;51.444;6.528;2023-05-10T09:46:52;25.70;;;16.97;;
9848;SDS011;4963;51.444;6.528;2023-05-10T09:49:20;24.52;;;16.98;;
9848;SDS011;4963;51.444;6.528;2023-05-10T09:51:56;26.97;;;17.60;;
9848;SDS011;4963;51.444;6.528;2023-05-10T09:54:28;24.93;;;17.47;;
9848;SDS011;4963;51.444;6.528;2023-05-10T09:56:56;26.20;;;17.97;;
9848;SDS011;4963;51.444;6.528;2023-05-10T09:59:24;25.30;;;17.87;;
9848;SDS011;4963;51.444;6.528;2023-05-10T10:01:52;23.33;;;17.23;;
9848;SDS011;4963;51.444;6.528;2023-05-10T10:04:20;24.80;;;17.17;;
9848;SDS011;4963;51.444;6.528;2023-05-10T10:06:49;23.77;;;17.20;;
9848;SDS011;4963;51.444;6.528;2023-05-10T10:09:25;23.33;;;18.03;;
9848;SDS011;4963;51.444;6.528;2023-05-10T10:11:54;25.07;;;18.67;;
9848;SDS011;4963;51.444;6.528;2023-05-10T10:14:21;23.47;;;18.17;;
9848;SDS011;4963;51.444;6.528;2023-05-10T10:16:49;27.63;;;18.03;;
9848;SDS011;4963;51.444;6.528;2023-05-10T10:19:16;23.33;;;17.80;;
9848;SDS011;4963;51.444;6.528;2023-05-10T10:21:45;22.33;;;17.88;;
9848;SDS011;4963;51.444;6.528;2023-05-10T10:24:12;25.07;;;17.70;;
9848;SDS011;4963;51.444;6.528;2023-05-10T10:26:39;23.90;;;18.07;;
9848;SDS011;4963;51.444;6.528;2023-05-10T10:29:10;21.93;;;17.80;;
9848;SDS011;4963;51.444;6.528;2023-05-10T10:31:46;23.20;;;18.70;;
9848;SDS011;4963;51.444;6.528;2023-05-10T10:34:21;20.47;;;17.43;;
9848;SDS011;4963;51.444;6.528;2023-05-10T10:36:54;22.47;;;16.33;;
9848;SDS011;4963;51.444;6.528;2023-05-10T10:39:22;23.20;;;17.00;;
9848;SDS011;4963;51.444;6.528;2023-05-10T10:41:51;20.93;;;16.20;;
9848;SDS011;4963;51.444;6.528;2023-05-10T10:44:23;19.77;;;16.43;;
9848;SDS011;4963;51.444;6.528;2023-05-10T10:47:01;21.63;;;17.77;;
9848;SDS011;4963;51.444;6.528;2023-05-10T10:49:31;20.37;;;14.90;;
9848;SDS011;4963;51.444;6.528;2023-05-10T10:54:58;20.13;;;14.80;;
9848;SDS011;4963;51.444;6.528;2023-05-10T10:57:27;16.40;;;14.60;;
9848;SDS011;4963;51.444;6.528;2023-05-10T11:02:50;17.07;;;13.37;;
9848;SDS011;4963;51.444;6.528;2023-05-10T11:05:34;14.23;;;12.73;;
9848;SDS011;4963;51.444;6.528;2023-05-10T11:08:08;18.83;;;13.83;;
9848;SDS011;4963;51.444;6.528;2023-05-10T11:10:37;16.07;;;13.90;;
9848;SDS011;4963;51.444;6.528;2023-05-10T11:13:05;15.20;;;11.50;;
9848;SDS011;4963;51.444;6.528;2023-05-10T11:15:32;15.07;;;11.80;;
9848;SDS011;4963;51.444;6.528;2023-05-10T11:18:16;12.37;;;10.03;;
9848;SDS011;4963;51.444;6.528;2023-05-10T11:20:50;12.73;;;10.33;;
9848;SDS011;4963;51.444;6.528;2023-05-10T11:23:18;10.68;;;8.38;;
9848;SDS011;4963;51.444;6.528;2023-05-10T11:25:47;9.90;;;8.67;;
9848;SDS011;4963;51.444;6.528;2023-05-10T11:28:16;10.10;;;9.10;;
9848;SDS011;4963;51.444;6.528;2023-05-10T11:30:43;10.85;;;9.65;;
9848;SDS011;4963;51.444;6.528;2023-05-10T11:33:14;12.10;;;9.87;;
9848;SDS011;4963;51.444;6.528;2023-05-10T11:35:42;11.17;;;9.97;;
9848;SDS011;4963;51.444;6.528;2023-05-10T11:38:10;10.38;;;9.27;;
9848;SDS011;4963;51.444;6.528;2023-05-10T11:40:39;10.80;;;9.73;;
9848;SDS011;4963;51.444;6.528;2023-05-10T11:43:08;14.60;;;9.03;;
9848;SDS011;4963;51.444;6.528;2023-05-10T11:45:36;10.60;;;9.27;;
9848;SDS011;4963;51.444;6.528;2023-05-10T11:48:03;14.02;;;9.73;;
9848;SDS011;4963;51.444;6.528;2023-05-10T11:50:30;16.33;;;9.60;;
9848;SDS011;4963;51.444;6.528;2023-05-10T11:52:57;12.20;;;9.27;;
9848;SDS011;4963;51.444;6.528;2023-05-10T11:55:24;9.90;;;8.90;;
9848;SDS011;4963;51.444;6.528;2023-05-10T11:57:53;13.07;;;9.97;;
9848;SDS011;4963;51.444;6.528;2023-05-10T12:00:20;10.00;;;8.67;;
9848;SDS011;4963;51.444;6.528;2023-05-10T12:02:47;10.80;;;9.70;;
9848;SDS011;4963;51.444;6.528;2023-05-10T12:05:15;9.70;;;8.60;;
9848;SDS011;4963;51.444;6.528;2023-05-10T12:07:42;13.68;;;9.63;;
9848;SDS011;4963;51.444;6.528;2023-05-10T12:10:09;13.23;;;8.88;;
9848;SDS011;4963;51.444;6.528;2023-05-10T12:12:39;10.23;;;8.30;;
9848;SDS011;4963;51.444;6.528;2023-05-10T12:15:12;9.50;;;7.67;;
9848;SDS011;4963;51.444;6.528;2023-05-10T12:17:44;10.40;;;8.00;;
9848;SDS011;4963;51.444;6.528;2023-05-10T12:20:15;8.30;;;7.50;;
9848;SDS011;4963;51.444;6.528;2023-05-10T12:22:46;11.65;;;6.78;;
9848;SDS011;4963;51.444;6.528;2023-05-10T12:25:15;10.35;;;7.28;;
9848;SDS011;4963;51.444;6.528;2023-05-10T12:27:47;7.60;;;6.77;;
9848;SDS011;4963;51.444;6.528;2023-05-10T12:30:22;8.32;;;7.30;;
9848;SDS011;4963;51.444;6.528;2023-05-10T12:32:50;8.88;;;6.93;;
9848;SDS011;4963;51.444;6.528;2023-05-10T12:35:17;8.45;;;6.75;;
9848;SDS011;4963;51.444;6.528;2023-05-10T12:37:46;8.65;;;6.50;;
9848;SDS011;4963;51.444;6.528;2023-05-10T12:40:14;8.38;;;6.68;;
9848;SDS011;4963;51.444;6.528;2023-05-10T12:42:41;9.00;;;7.40;;
9848;SDS011;4963;51.444;6.528;2023-05-10T12:45:10;9.30;;;7.80;;
9848;SDS011;4963;51.444;6.528;2023-05-10T12:47:38;7.15;;;6.30;;
9848;SDS011;4963;51.444;6.528;2023-05-10T12:50:06;7.88;;;6.85;;
9848;SDS011;4963;51.444;6.528;2023-05-10T12:52:33;8.63;;;7.65;;
9848;SDS011;4963;51.444;6.528;2023-05-10T12:55:00;9.18;;;7.55;;
9848;SDS011;4963;51.444;6.528;2023-05-10T12:57:28;8.95;;;7.97;;
9848;SDS011;4963;51.444;6.528;2023-05-10T12:59:55;12.07;;;9.93;;
9848;SDS011;4963;51.444;6.528;2023-05-10T13:02:22;13.18;;;10.70;;
9848;SDS011;4963;51.444;6.528;2023-05-10T13:04:50;10.50;;;9.40;;
9848;SDS011;4963;51.444;6.528;2023-05-10T13:07:18;10.35;;;9.25;;
9848;SDS011;4963;51.444;6.528;2023-05-10T13:09:45;11.50;;;9.10;;
9848;SDS011;4963;51.444;6.528;2023-05-10T13:12:12;10.15;;;8.88;;
9848;SDS011;4963;51.444;6.528;2023-05-10T13:14:38;9.52;;;8.48;;
9848;SDS011;4963;51.444;6.528;2023-05-10T13:17:06;9.55;;;8.50;;
9848;SDS011;4963;51.444;6.528;2023-05-10T13:19:33;10.05;;;9.05;;
9848;SDS011;4963;51.444;6.528;2023-05-10T13:22:02;10.38;;;9.10;;
9848;SDS011;4963;51.444;6.528;2023-05-10T13:24:29;11.52;;;10.27;;
9848;SDS011;4963;51.444;6.528;2023-05-10T13:26:56;11.45;;;10.23;;
9848;SDS011;4963;51.444;6.528;2023-05-10T13:29:23;13.30;;;10.05;;
9848;SDS011;4963;51.444;6.528;2023-05-10T13:31:49;12.60;;;9.93;;
9848;SDS011;4963;51.444;6.528;2023-05-10T13:34:16;14.68;;;10.60;;
9848;SDS011;4963;51.444;6.528;2023-05-10T13:36:45;13.95;;;11.07;;
9848;SDS011;4963;51.444;6.528;2023-05-10T13:39:13;11.48;;;10.15;;
9848;SDS011;4963;51.444;6.528;2023-05-10T13:41:40;12.32;;;10.35;;
9848;SDS011;4963;51.444;6.528;2023-05-10T13:44:07;12.25;;;11.05;;
9848;SDS011;4963;51.444;6.528;2023-05-10T13:46:34;12.65;;;11.35;;
9848;SDS011;4963;51.444;6.528;2023-05-10T13:49:01;13.98;;;12.48;;
9848;SDS011;4963;51.444;6.528;2023-05-10T13:51:28;15.85;;;11.45;;
9848;SDS011;4963;51.444;6.528;2023-05-10T13:53:56;13.45;;;11.82;;
9848;SDS011;4963;51.444;6.528;2023-05-10T13:56:24;14.45;;;12.93;;
9848;SDS011;4963;51.444;6.528;2023-05-10T13:58:51;16.33;;;13.68;;
9848;SDS011;4963;51.444;6.528;2023-05-10T14:01:18;13.45;;;12.05;;
9848;SDS011;4963;51.444;6.528;2023-05-10T14:03:45;13.48;;;11.90;;
9848;SDS011;4963;51.444;6.528;2023-05-10T14:06:12;15.30;;;12.95;;
9848;SDS011;4963;51.444;6.528;2023-05-10T14:08:38;13.85;;;11.32;;
9848;SDS011;4963;51.444;6.528;2023-05-10T14:11:05;15.93;;;12.18;;
9848;SDS011;4963;51.444;6.528;2023-05-10T14:13:33;13.68;;;11.80;;
9848;SDS011;4963;51.444;6.528;2023-05-10T14:16:00;12.45;;;10.85;;
9848;SDS011;4963;51.444;6.528;2023-05-10T14:18:27;14.15;;;12.45;;
9848;SDS011;4963;51.444;6.528;2023-05-10T14:20:54;14.10;;;11.63;;
9848;SDS011;4963;51.444;6.528;2023-05-10T14:23:21;12.32;;;10.45;;
9848;SDS011;4963;51.444;6.528;2023-05-10T14:25:50;15.88;;;11.40;;
9848;SDS011;4963;51.444;6.528;2023-05-10T14:28:16;14.77;;;11.13;;
9848;SDS011;4963;51.444;6.528;2023-05-10T14:30:46;12.07;;;10.27;;
9848;SDS011;4963;51.444;6.528;2023-05-10T14:33:13;15.07;;;11.82;;
9848;SDS011;4963;51.444;6.528;2023-05-10T14:35:40;13.48;;;11.68;;
9848;SDS011;4963;51.444;6.528;2023-05-10T14:38:07;15.65;;;12.82;;
9848;SDS011;4963;51.444;6.528;2023-05-10T14:40:34;10.68;;;8.15;;
9848;SDS011;4963;51.444;6.528;2023-05-10T14:43:01;7.35;;;6.30;;
9848;SDS011;4963;51.444;6.528;2023-05-10T14:45:28;7.78;;;5.60;;
9848;SDS011;4963;51.444;6.528;2023-05-10T14:47:56;4.95;;;4.45;;
9848;SDS011;4963;51.444;6.528;2023-05-10T14:50:24;5.38;;;3.53;;
9848;SDS011;4963;51.444;6.528;2023-05-10T14:52:50;4.72;;;3.50;;
9848;SDS011;4963;51.444;6.528;2023-05-10T14:55:17;3.58;;;3.25;;
9848;SDS011;4963;51.444;6.528;2023-05-10T14:57:44;6.50;;;3.63;;
9848;SDS011;4963;51.444;6.528;2023-05-10T15:00:12;4.55;;;3.03;;
9848;SDS011;4963;51.444;6.528;2023-05-10T15:02:41;4.38;;;3.67;;
9848;SDS011;4963;51.444;6.528;2023-05-10T15:05:09;6.38;;;3.60;;
9848;SDS011;4963;51.444;6.528;2023-05-10T15:07:36;4.25;;;3.30;;
9848;SDS011;4963;51.444;6.528;2023-05-10T15:10:03;6.07;;;3.47;;
9848;SDS011;4963;51.444;6.528;2023-05-10T15:12:31;5.03;;;3.60;;
9848;SDS011;4963;51.444;6.528;2023-05-10T15:14:57;5.75;;;3.90;;
9848;SDS011;4963;51.444;6.528;2023-05-10T15:17:24;7.55;;;4.57;;